Terminal Aerodrome Forecast
Issued by NWS Charleston, WV

Current Version | Previous Version | Graphics & Text | Print | Product List | Glossary On
Versions: 1 2 3 4 5 6 7 8 9 10 11 12 13 14 15 16 17 18 19 20 21 22 23 24 25
000
FTUS41 KRLX 280241 AAA
TAFHTS
TAF AMD
KHTS 280241Z 2803/2824 22004KT P6SM SCT090
     FM281000 00000KT 6SM BR FEW050
     FM281300 00000KT P6SM VCSH SCT060
     FM282000 00000KT P6SM BKN035=

USA.gov is the U.S. government's official web portal to all federal, state and local government web resources and services.